Terminal Aerodrome Forecast
Issued by NWS Cleveland, OH

Home | Current Version | Previous Version | Graphics & Text | Print | Product List | Glossary On
Versions: 1 2 3 4 5 6 7 8 9 10 11 12 13 14 15 16 17 18 19 20 21
000
FTUS41 KCLE 282354 AAA
TAFCAK
TAF AMD
KCAK 282354Z 2900/2924 24012KT P6SM VCTS SCT035CB BKN050
      TEMPO 2900/2904 VRB20G35KT 2SM -TSRA OVC015CB
     FM290500 24012KT P6SM VCSH SCT025 OVC040
     FM291000 25012KT P6SM SCT025 BKN040
     FM291600 27012G18KT P6SM SCT040=

USA.gov is the U.S. government's official web portal to all federal, state and local government web resources and services.